Time;durP1;ratioP1;P1;durP2;ratioP2;P2;SDS_P1;SDS_P2;PMS_P1;PMS_P2;Temp;Humidity;BMP_temperature;BMP_pressure;BME280_temperature;BME280_humidity;BME280_pressure;Samples;Min_cycle;Max_cycle;Signal;HPM_P1;HPM_P2
2022/08/19 00:01:21;;;;;;;18.00;16.30;;;;;23.70;98370.00;;;;16653140;28;20281;-51
2022/08/19 00:09:25;;;;;;;16.37;15.07;;;;;23.70;98367.00;;;;16666869;28;20209;-51
2022/08/19 00:17:28;;;;;;;17.03;15.53;;;;;23.60;98378.00;;;;16719288;28;20309;-51
2022/08/19 00:25:31;;;;;;;17.80;16.30;;;;;23.60;98378.00;;;;16719236;28;20213;-51
2022/08/19 00:33:34;;;;;;;18.70;17.10;;;;;23.50;98364.00;;;;16718347;28;20236;-50
2022/08/19 00:41:38;;;;;;;18.53;16.93;;;;;23.40;98351.00;;;;16718567;28;20714;-49
2022/08/19 00:49:45;;;;;;;18.73;17.07;;;;;23.30;98354.00;;;;16718981;28;20324;-48
2022/08/19 00:57:54;;;;;;;19.73;17.73;;;;;23.30;98359.00;;;;16731995;28;20221;-50
2022/08/19 01:05:57;;;;;;;17.03;15.53;;;;;23.30;98366.00;;;;16730515;28;20218;-51
2022/08/19 01:14:01;;;;;;;18.97;17.07;;;;;23.30;98364.00;;;;16729613;28;20253;-50
2022/08/19 01:22:09;;;;;;;18.43;16.53;;;;;23.30;98360.00;;;;16678819;28;20784;-51
2022/08/19 01:30:16;;;;;;;16.70;15.20;;;;;23.30;98355.00;;;;16663647;28;20245;-50
2022/08/19 01:38:23;;;;;;;18.80;17.00;;;;;23.20;98352.00;;;;16662614;28;20754;-51
2022/08/19 01:46:27;;;;;;;19.13;17.30;;;;;23.30;98348.00;;;;16662241;28;20215;-51
2022/08/19 01:54:29;;;;;;;19.10;17.30;;;;;23.40;98347.00;;;;16661367;28;20239;-49
2022/08/19 02:02:33;;;;;;;18.80;17.20;;;;;23.60;98346.00;;;;16660201;28;20356;-50
2022/08/19 02:10:40;;;;;;;18.93;17.23;;;;;23.20;98350.00;;;;16660467;28;20257;-51
2022/08/19 02:18:44;;;;;;;21.03;19.00;;;;;23.50;98349.00;;;;16659077;28;20218;-50
2022/08/19 02:26:47;;;;;;;20.97;18.97;;;;;23.10;98351.00;;;;16659628;28;20215;-50
2022/08/19 02:34:50;;;;;;;22.80;20.50;;;;;23.20;98357.00;;;;16658518;28;20718;-50
2022/08/19 02:42:53;;;;;;;20.90;18.83;;;;;23.20;98352.00;;;;16658300;28;20566;-51
2022/08/19 02:50:57;;;;;;;22.67;20.60;;;;;23.10;98340.00;;;;16656502;28;20317;-50
2022/08/19 02:58:59;;;;;;;22.60;20.40;;;;;23.20;98345.00;;;;16656908;28;20224;-51
2022/08/19 03:07:03;;;;;;;23.50;21.30;;;;;22.80;98340.00;;;;16656475;28;20250;-49
2022/08/19 03:15:07;;;;;;;25.77;23.30;;;;;23.00;98355.00;;;;16656302;28;20222;-50
2022/08/19 03:23:12;;;;;;;24.50;22.00;;;;;22.70;98366.00;;;;16656206;28;20214;-51
2022/08/19 03:31:16;;;;;;;26.30;23.53;;;;;22.60;98370.00;;;;16654525;28;20223;-50
2022/08/19 03:39:19;;;;;;;26.60;24.03;;;;;22.50;98365.00;;;;16849003;22;20584;-80
2022/08/19 03:47:22;;;;;;;28.07;25.37;;;;;22.30;98363.00;;;;16819851;28;20251;-80
2022/08/19 03:55:26;;;;;;;30.17;27.27;;;;;22.60;98375.00;;;;16815092;28;20303;-79
2022/08/19 04:03:28;;;;;;;27.30;24.67;;;;;22.40;98369.00;;;;16818511;28;20251;-80
2022/08/19 04:11:41;;;;;;;29.10;26.20;;;;;22.50;98371.00;;;;16818072;28;20248;-80
2022/08/19 04:19:44;;;;;;;28.27;25.37;;;;;22.30;98362.00;;;;16794166;28;20217;-80
2022/08/19 04:27:48;;;;;;;30.20;27.20;;;;;22.30;98370.00;;;;16792153;28;20197;-80
2022/08/19 04:35:52;;;;;;;30.73;27.63;;;;;22.30;98355.00;;;;16796909;28;20278;-80
2022/08/19 04:43:56;;;;;;;31.30;28.27;;;;;22.40;98365.00;;;;16799236;28;20209;-80
2022/08/19 04:51:58;;;;;;;29.50;26.80;;;;;22.20;98357.00;;;;16803074;28;20295;-80
2022/08/19 05:00:03;;;;;;;29.93;27.00;;;;;22.30;98362.00;;;;16816931;22;20610;-48
2022/08/19 05:08:06;;;;;;;29.40;26.50;;;;;22.30;98367.00;;;;16632457;28;20702;-48
2022/08/19 05:16:12;;;;;;;28.17;25.47;;;;;22.30;98387.00;;;;16586716;28;20227;-48
2022/08/19 05:24:15;;;;;;;30.67;27.87;;;;;22.40;98418.00;;;;16646497;28;20309;-48
2022/08/19 05:32:19;;;;;;;28.77;25.87;;;;;22.40;98452.00;;;;16650764;28;20229;-47
2022/08/19 05:40:22;;;;;;;29.60;26.73;;;;;22.40;98467.00;;;;16647586;28;20218;-47
2022/08/19 05:48:26;;;;;;;29.30;26.60;;;;;22.50;98455.00;;;;16660513;28;20572;-48
2022/08/19 05:56:30;;;;;;;29.03;26.40;;;;;22.80;98462.00;;;;16661097;28;20230;-48
2022/08/19 06:04:34;;;;;;;29.53;26.73;;;;;22.50;98465.00;;;;16660982;28;20214;-48
2022/08/19 06:12:37;;;;;;;31.47;28.60;;;;;22.60;98463.00;;;;16644818;28;20399;-48
2022/08/19 06:20:41;;;;;;;30.57;27.57;;;;;22.10;98467.00;;;;16660364;28;20313;-47
2022/08/19 06:28:46;;;;;;;33.57;30.40;;;;;21.90;98466.00;;;;16658929;28;20219;-48
2022/08/19 06:36:52;;;;;;;34.03;30.70;;;;;21.90;98477.00;;;;16658612;28;20711;-48
2022/08/19 06:44:54;;;;;;;33.33;30.13;;;;;21.80;98474.00;;;;16658353;28;20655;-48
2022/08/19 06:52:58;;;;;;;35.13;31.53;;;;;21.80;98471.00;;;;16656671;28;20742;-48
2022/08/19 07:01:02;;;;;;;36.40;32.70;;;;;21.90;98479.00;;;;16657704;28;20297;-48
2022/08/19 07:09:10;;;;;;;33.30;30.00;;;;;22.00;98482.00;;;;16656709;28;20333;-48
2022/08/19 07:17:14;;;;;;;32.93;29.67;;;;;22.20;98484.00;;;;16651197;28;20732;-48
2022/08/19 07:25:18;;;;;;;33.50;30.47;;;;;22.10;98483.00;;;;16648494;28;20219;-47
2022/08/19 07:33:21;;;;;;;35.33;31.80;;;;;22.00;98491.00;;;;16655713;28;20231;-48
2022/08/19 07:41:28;;;;;;;36.03;32.50;;;;;21.70;98494.00;;;;16654562;28;20572;-48
2022/08/19 07:49:31;;;;;;;35.30;31.50;;;;;21.60;98487.00;;;;16654134;28;20223;-48
2022/08/19 07:57:35;;;;;;;34.67;31.10;;;;;21.50;98506.00;;;;16653858;28;20225;-47
2022/08/19 08:13:58;;;;;;;33.97;30.47;;;;;21.60;98510.00;;;;16656866;28;20758;-48
2022/08/19 08:22:02;;;;;;;35.80;32.30;;;;;21.40;98512.00;;;;16653279;28;20203;-48
2022/08/19 08:30:09;;;;;;;38.37;32.27;;;;;21.40;98519.00;;;;16652950;28;20222;-47
2022/08/19 08:38:11;;;;;;;36.47;32.97;;;;;21.30;98512.00;;;;16653023;28;20309;-47
2022/08/19 08:46:18;;;;;;;36.77;33.20;;;;;21.50;98506.00;;;;16652166;28;20225;-48
2022/08/19 08:54:31;;;;;;;38.57;34.77;;;;;21.80;98511.00;;;;16650910;28;20348;-48
2022/08/19 09:02:35;;;;;;;34.90;31.60;;;;;22.20;98512.00;;;;16651612;28;20313;-47
2022/08/19 09:10:40;;;;;;;32.07;28.97;;;;;22.50;98511.00;;;;16652699;28;20225;-48
2022/08/19 09:18:46;;;;;;;32.73;29.37;;;;;22.40;98519.00;;;;16664084;28;20226;-48
2022/08/19 09:26:49;;;;;;;32.53;29.57;;;;;22.30;98512.00;;;;16663544;28;20233;-47
2022/08/19 09:34:54;;;;;;;30.87;27.70;;;;;22.40;98512.00;;;;16709957;22;20240;-52
2022/08/19 09:42:57;;;;;;;30.73;27.53;;;;;22.40;98517.00;;;;16661672;28;20195;-52
2022/08/19 09:51:06;;;;;;;33.40;29.90;;;;;22.50;98521.00;;;;16595863;28;20223;-52
2022/08/19 09:59:09;;;;;;;33.83;30.20;;;;;22.30;98531.00;;;;16596609;28;20296;-51
2022/08/19 10:07:13;;;;;;;34.60;31.50;;;;;22.40;98537.00;;;;16595749;28;20584;-52
2022/08/19 10:15:16;;;;;;;34.60;31.33;;;;;22.30;98536.00;;;;16593973;28;20233;-51
2022/08/19 10:23:21;;;;;;;37.77;34.03;;;;;23.40;98531.00;;;;16593075;28;20211;-50
2022/08/19 10:31:27;;;;;;;46.93;42.43;;;;;22.70;98522.00;;;;16593990;28;20221;-51
2022/08/19 10:39:32;;;;;;;35.00;31.70;;;;;22.50;98514.00;;;;16593310;28;20269;-51
2022/08/19 10:47:35;;;;;;;37.00;33.53;;;;;23.00;98510.00;;;;16593114;28;20302;-51
2022/08/19 11:03:58;;;;;;;36.67;32.90;;;;;24.20;98498.00;;;;16632204;28;20221;-51
2022/08/19 11:12:03;;;;;;;42.10;37.50;;;;;23.50;98508.00;;;;16656005;28;20228;-51
2022/08/19 11:20:06;;;;;;;38.83;34.90;;;;;23.30;98512.00;;;;16656204;28;20258;-52
2022/08/19 11:28:09;;;;;;;37.53;33.93;;;;;23.20;98509.00;;;;16656102;28;20753;-50
2022/08/19 11:36:12;;;;;;;39.23;35.37;;;;;23.50;98516.00;;;;16656079;28;20227;-52
2022/08/19 11:44:16;;;;;;;39.43;35.63;;;;;23.90;98504.00;;;;16655137;28;20246;-51
2022/08/19 11:52:18;;;;;;;41.00;36.90;;;;;23.90;98513.00;;;;16654589;28;20226;-52
2022/08/19 12:00:22;;;;;;;40.07;35.97;;;;;23.80;98501.00;;;;16654364;28;20206;-51
2022/08/19 12:08:25;;;;;;;36.10;32.80;;;;;23.80;98512.00;;;;16652865;28;20214;-51
2022/08/19 12:16:30;;;;;;;36.37;33.10;;;;;24.20;98500.00;;;;16652750;28;20305;-51
2022/08/19 12:24:33;;;;;;;35.73;32.53;;;;;24.40;98499.00;;;;16653208;28;20222;-51
2022/08/19 12:32:37;;;;;;;43.90;39.50;;;;;24.30;98506.00;;;;16653097;28;20244;-52
2022/08/19 12:40:40;;;;;;;39.60;35.77;;;;;23.50;98502.00;;;;16652414;28;20352;-52
2022/08/19 12:48:44;;;;;;;41.57;37.37;;;;;23.40;98507.00;;;;16657112;28;20230;-52
2022/08/19 12:56:47;;;;;;;42.33;38.10;;;;;23.60;98508.00;;;;16665341;28;20313;-52
2022/08/19 13:04:50;;;;;;;42.60;38.40;;;;;23.60;98519.00;;;;16665157;28;20656;-52
2022/08/19 13:12:53;;;;;;;38.80;34.90;;;;;23.90;98534.00;;;;16665830;28;20316;-52
2022/08/19 13:20:57;;;;;;;40.77;36.80;;;;;23.90;98539.00;;;;16664284;28;20222;-53
2022/08/19 13:37:40;;;;;;;39.87;36.00;;;;;23.30;98538.00;;;;16663127;28;20292;-53
2022/08/19 13:45:43;;;;;;;40.97;36.93;;;;;23.10;98531.00;;;;16663066;28;20575;-51
2022/08/19 13:53:46;;;;;;;40.37;36.47;;;;;23.50;98535.00;;;;16662208;28;20487;-53
2022/08/19 14:01:49;;;;;;;43.70;39.53;;;;;23.50;98535.00;;;;16660389;28;20213;-51
2022/08/19 14:09:53;;;;;;;44.90;40.30;;;;;23.60;98549.00;;;;16660216;28;20218;-53
2022/08/19 14:17:56;;;;;;;42.00;37.87;;;;;23.60;98537.00;;;;16659938;28;20226;-52
2022/08/19 14:26:08;;;;;;;39.13;35.43;;;;;23.80;98540.00;;;;16659956;28;20217;-52
2022/08/19 14:34:10;;;;;;;42.57;38.30;;;;;24.00;98526.00;;;;16658931;28;20252;-52
2022/08/19 14:42:14;;;;;;;36.90;33.53;;;;;23.90;98523.00;;;;16659292;28;20737;-53
2022/08/19 14:50:17;;;;;;;33.07;29.77;;;;;23.50;98521.00;;;;16657531;28;20222;-53
2022/08/19 14:58:22;;;;;;;31.77;28.77;;;;;23.40;98518.00;;;;16657259;28;20218;-52
2022/08/19 15:06:25;;;;;;;30.43;27.83;;;;;23.70;98517.00;;;;16657073;28;20215;-52
2022/08/19 15:14:34;;;;;;;34.60;31.40;;;;;24.20;98517.00;;;;16656125;28;20230;-51
2022/08/19 15:22:36;;;;;;;34.23;31.10;;;;;24.10;98519.00;;;;16655927;28;20550;-52
2022/08/19 15:30:43;;;;;;;28.70;26.27;;;;;24.50;98511.00;;;;16656852;28;20226;-52
2022/08/19 15:38:45;;;;;;;28.90;26.33;;;;;24.60;98512.00;;;;16845167;22;20239;-80
2022/08/19 15:46:49;;;;;;;29.00;26.50;;;;;24.40;98512.00;;;;16937743;28;20219;-80
2022/08/19 15:54:52;;;;;;;33.20;30.20;;;;;24.30;98527.00;;;;16921277;28;20224;-79
2022/08/19 16:11:19;;;;;;;32.13;28.97;;;;;24.90;98535.00;;;;16922083;28;20222;-81
2022/08/19 16:19:24;;;;;;;29.90;27.47;;;;;25.20;98544.00;;;;16920050;28;20206;-80
2022/08/19 16:27:27;;;;;;;30.10;27.40;;;;;25.60;98546.00;;;;16935241;28;20269;-80
2022/08/19 16:35:31;;;;;;;34.70;31.67;;;;;24.50;98545.00;;;;16928125;28;20292;-79
2022/08/19 16:43:34;;;;;;;31.67;28.77;;;;;24.00;98547.00;;;;16922518;28;20208;-80
2022/08/19 16:51:38;;;;;;;31.43;28.53;;;;;24.10;98567.00;;;;16923127;28;20347;-80
2022/08/19 16:59:40;;;;;;;30.17;27.27;;;;;24.00;98561.00;;;;16928989;28;20220;-80
2022/08/19 17:07:44;;;;;;;29.87;26.97;;;;;24.40;98583.00;;;;16774556;22;20242;-49
2022/08/19 17:15:47;;;;;;;30.53;27.80;;;;;24.00;98580.00;;;;16714822;28;20220;-48
2022/08/19 17:23:51;;;;;;;31.20;28.20;;;;;24.10;98585.00;;;;16715525;28;20320;-49
2022/08/19 17:31:53;;;;;;;28.53;26.03;;;;;24.00;98597.00;;;;16716317;28;20210;-49
2022/08/19 17:39:57;;;;;;;30.60;27.87;;;;;23.90;98594.00;;;;16727544;28;20307;-48
2022/08/19 17:48:00;;;;;;;29.53;26.93;;;;;23.90;98591.00;;;;16728120;28;20245;-48
2022/08/19 17:56:04;;;;;;;28.87;26.30;;;;;24.00;98594.00;;;;16726741;28;20543;-49
2022/08/19 18:04:08;;;;;;;29.23;26.50;;;;;23.90;98586.00;;;;16726106;28;20271;-48
2022/08/19 18:12:15;;;;;;;30.63;27.87;;;;;23.80;98602.00;;;;16726993;28;20234;-48
2022/08/19 18:20:17;;;;;;;29.70;27.00;;;;;23.80;98603.00;;;;16726020;28;20325;-48
2022/08/19 18:28:22;;;;;;;31.47;28.10;;;;;23.50;98615.00;;;;16724909;28;20694;-48
2022/08/19 18:36:25;;;;;;;28.77;26.17;;;;;23.50;98616.00;;;;16724812;28;20225;-48
2022/08/19 18:52:48;;;;;;;35.57;32.37;;;;;23.00;98625.00;;;;16722037;28;20607;-49
2022/08/19 19:00:55;;;;;;;31.50;28.80;;;;;23.50;98625.00;;;;16721755;28;20232;-49
2022/08/19 19:08:59;;;;;;;32.97;29.97;;;;;22.90;98637.00;;;;16720910;28;20612;-48
2022/08/19 19:17:06;;;;;;;35.50;32.20;;;;;22.80;98659.00;;;;16720809;28;20229;-49
2022/08/19 19:25:10;;;;;;;34.03;30.30;;;;;23.00;98646.00;;;;16720631;28;20335;-48
2022/08/19 19:33:14;;;;;;;36.10;32.73;;;;;23.00;98647.00;;;;16720139;28;20217;-48
2022/08/19 19:41:20;;;;;;;35.93;32.60;;;;;23.20;98658.00;;;;16719254;28;20230;-48
2022/08/19 19:49:23;;;;;;;34.10;31.20;;;;;23.20;98664.00;;;;16718935;28;20222;-48
2022/08/19 19:57:26;;;;;;;37.43;33.97;;;;;22.80;98661.00;;;;16718214;28;20230;-48
2022/08/19 20:05:30;;;;;;;32.73;29.63;;;;;22.00;98682.00;;;;16718324;28;20217;-49
2022/08/19 20:13:33;;;;;;;34.93;31.53;;;;;21.50;98685.00;;;;16717733;28;20772;-48
2022/08/19 20:21:38;;;;;;;37.33;33.77;;;;;22.00;98689.00;;;;16717904;28;20205;-48
2022/08/19 20:29:41;;;;;;;39.57;35.67;;;;;21.80;98697.00;;;;16718059;28;20640;-48
2022/08/19 20:37:45;;;;;;;37.00;33.63;;;;;22.40;98693.00;;;;16716923;28;20257;-48
2022/08/19 20:45:47;;;;;;;38.77;35.10;;;;;22.30;98686.00;;;;16718096;28;20766;-48
2022/08/19 20:53:51;;;;;;;36.60;33.40;;;;;22.30;98684.00;;;;16716362;28;20568;-48
2022/08/19 21:01:55;;;;;;;37.00;33.80;;;;;22.20;98681.00;;;;16717272;28;20229;-48
2022/08/19 21:09:59;;;;;;;35.80;32.53;;;;;22.20;98691.00;;;;16722811;28;20218;-48
2022/08/19 21:18:01;;;;;;;37.07;33.67;;;;;22.80;98681.00;;;;16728524;28;20243;-48
2022/08/19 21:26:05;;;;;;;35.33;32.17;;;;;22.60;98683.00;;;;16728196;28;20833;-48
2022/08/19 21:34:08;;;;;;;38.47;34.87;;;;;22.50;98681.00;;;;16739307;22;20232;-84
2022/08/19 21:42:13;;;;;;;30.80;28.07;;;;;21.80;98696.00;;;;16794660;28;20226;-82
2022/08/19 21:50:15;;;;;;;31.03;28.37;;;;;21.70;98701.00;;;;16749777;28;20202;-83
2022/08/19 21:58:19;;;;;;;24.07;22.07;;;;;21.30;98701.00;;;;16748588;28;20225;-81
2022/08/19 22:06:24;;;;;;;24.10;22.13;;;;;21.60;98712.00;;;;16738560;28;20719;-83
2022/08/19 22:14:28;;;;;;;22.33;20.20;;;;;21.50;98703.00;;;;16736580;28;20309;-82
2022/08/19 22:22:32;;;;;;;19.63;17.70;;;;;21.60;98706.00;;;;16760295;28;20202;-82
2022/08/19 22:30:38;;;;;;;18.03;16.37;;;;;22.10;98712.00;;;;16754100;28;20229;-82
2022/08/19 22:38:41;;;;;;;15.00;13.70;;;;;21.50;98711.00;;;;16755573;28;20218;-82
2022/08/19 22:46:44;;;;;;;15.60;13.97;;;;;21.70;98717.00;;;;16750093;28;20214;-82
2022/08/19 22:54:48;;;;;;;14.03;12.80;;;;;21.90;98703.00;;;;16763922;28;20279;-81
2022/08/19 23:02:52;;;;;;;13.93;12.83;;;;;22.30;98693.00;;;;16790826;22;20618;-50
2022/08/19 23:10:55;;;;;;;14.60;13.20;;;;;22.30;98700.00;;;;16731179;28;20230;-51
2022/08/19 23:18:59;;;;;;;16.83;15.47;;;;;22.30;98706.00;;;;16730604;28;20302;-51
2022/08/19 23:35:23;;;;;;;12.90;11.90;;;;;22.90;98699.00;;;;16783273;28;20237;-51
2022/08/19 23:43:28;;;;;;;13.50;12.40;;;;;23.20;98706.00;;;;16721035;28;20685;-51
2022/08/19 23:51:31;;;;;;;16.07;14.87;;;;;23.10;98710.00;;;;16699900;28;20229;-51
2022/08/19 23:59:34;;;;;;;13.40;12.20;;;;;23.10;98719.00;;;;16719885;28;20308;-51
